Crook, Illinois
Current Conditions -  °F | °C
As of 3:35 AM on Friday 28 Nov 2014 (Local Time) from KFWC Reporting Station
Clear Clear  
Wind Chill: 21°   Ceiling: Unl
Heat Index: 21°   Visibility: 7mi
Dew Point: 19°   Wind: 0mph
Humidity: 93%   Direction: NA
Pressure: 30.42"   Gusts: NA
Location:  38.1018°N, 88.4953°W
Report Text: KFWC 280935Z AUTO 00000KT 7SM CLR M06/M07 A3042 RMK AO1 T10611070
Loading
Personal Weather Stations






























Interactive Weather Map New forecast layout! Learn more

10-Day Weather Forecast

Advertisements
Track Severe Weather on mobile